sensor_id;sensor_type;location;lat;lon;timestamp;P1;durP1;ratioP1;P2;durP2;ratioP2
70270;SDS011;57680;54.292;18.598;2023-07-02T00:01:48;18.37;;;9.73;;
70270;SDS011;57680;54.292;18.598;2023-07-02T00:04:14;14.13;;;8.57;;
70270;SDS011;57680;54.292;18.598;2023-07-02T00:06:40;14.68;;;8.65;;
70270;SDS011;57680;54.292;18.598;2023-07-02T00:09:07;17.20;;;9.38;;
70270;SDS011;57680;54.292;18.598;2023-07-02T00:11:32;16.60;;;9.37;;
70270;SDS011;57680;54.292;18.598;2023-07-02T00:13:58;20.48;;;9.75;;
70270;SDS011;57680;54.292;18.598;2023-07-02T00:16:24;18.50;;;10.13;;
70270;SDS011;57680;54.292;18.598;2023-07-02T00:18:49;22.10;;;10.30;;
70270;SDS011;57680;54.292;18.598;2023-07-02T00:21:14;21.75;;;10.52;;
70270;SDS011;57680;54.292;18.598;2023-07-02T00:23:40;17.17;;;10.50;;
70270;SDS011;57680;54.292;18.598;2023-07-02T00:26:05;18.40;;;10.47;;
70270;SDS011;57680;54.292;18.598;2023-07-02T00:28:31;19.47;;;10.87;;
70270;SDS011;57680;54.292;18.598;2023-07-02T00:30:56;18.83;;;10.88;;
70270;SDS011;57680;54.292;18.598;2023-07-02T00:33:21;19.27;;;10.97;;
70270;SDS011;57680;54.292;18.598;2023-07-02T00:35:47;19.57;;;11.60;;
70270;SDS011;57680;54.292;18.598;2023-07-02T00:38:13;19.35;;;10.60;;
70270;SDS011;57680;54.292;18.598;2023-07-02T00:40:38;17.90;;;10.10;;
70270;SDS011;57680;54.292;18.598;2023-07-02T00:43:04;17.70;;;11.27;;
70270;SDS011;57680;54.292;18.598;2023-07-02T00:45:30;19.55;;;11.52;;
70270;SDS011;57680;54.292;18.598;2023-07-02T00:47:56;19.70;;;11.03;;
70270;SDS011;57680;54.292;18.598;2023-07-02T00:50:22;18.47;;;10.73;;
70270;SDS011;57680;54.292;18.598;2023-07-02T00:52:48;19.58;;;11.50;;
70270;SDS011;57680;54.292;18.598;2023-07-02T00:55:14;20.52;;;11.25;;
70270;SDS011;57680;54.292;18.598;2023-07-02T00:57:39;18.70;;;11.00;;
70270;SDS011;57680;54.292;18.598;2023-07-02T01:00:05;19.33;;;11.20;;
70270;SDS011;57680;54.292;18.598;2023-07-02T01:02:31;17.88;;;10.93;;
70270;SDS011;57680;54.292;18.598;2023-07-02T01:04:56;21.07;;;11.07;;
70270;SDS011;57680;54.292;18.598;2023-07-02T01:07:22;20.30;;;11.90;;
70270;SDS011;57680;54.292;18.598;2023-07-02T01:09:47;20.30;;;11.87;;
70270;SDS011;57680;54.292;18.598;2023-07-02T01:12:13;18.97;;;10.83;;
70270;SDS011;57680;54.292;18.598;2023-07-02T01:14:38;19.08;;;11.77;;
70270;SDS011;57680;54.292;18.598;2023-07-02T01:17:07;18.58;;;11.40;;
70270;SDS011;57680;54.292;18.598;2023-07-02T01:19:46;21.27;;;11.33;;
70270;SDS011;57680;54.292;18.598;2023-07-02T01:22:16;19.50;;;11.02;;
70270;SDS011;57680;54.292;18.598;2023-07-02T01:24:43;21.38;;;11.77;;
70270;SDS011;57680;54.292;18.598;2023-07-02T01:27:10;17.02;;;10.85;;
70270;SDS011;57680;54.292;18.598;2023-07-02T01:29:35;17.43;;;10.77;;
70270;SDS011;57680;54.292;18.598;2023-07-02T01:32:01;16.58;;;10.13;;
70270;SDS011;57680;54.292;18.598;2023-07-02T01:34:26;15.93;;;10.10;;
70270;SDS011;57680;54.292;18.598;2023-07-02T01:36:52;15.90;;;10.27;;
70270;SDS011;57680;54.292;18.598;2023-07-02T01:39:17;16.75;;;10.32;;
70270;SDS011;57680;54.292;18.598;2023-07-02T01:44:19;17.75;;;10.73;;
70270;SDS011;57680;54.292;18.598;2023-07-02T01:46:46;17.25;;;10.32;;
70270;SDS011;57680;54.292;18.598;2023-07-02T01:49:11;19.17;;;10.40;;
70270;SDS011;57680;54.292;18.598;2023-07-02T01:51:37;17.93;;;10.80;;
70270;SDS011;57680;54.292;18.598;2023-07-02T01:54:02;17.45;;;10.32;;
70270;SDS011;57680;54.292;18.598;2023-07-02T01:56:28;18.27;;;11.37;;
70270;SDS011;57680;54.292;18.598;2023-07-02T01:58:54;18.98;;;11.38;;
70270;SDS011;57680;54.292;18.598;2023-07-02T02:01:19;17.07;;;10.73;;
70270;SDS011;57680;54.292;18.598;2023-07-02T02:03:44;17.03;;;10.50;;
70270;SDS011;57680;54.292;18.598;2023-07-02T02:06:11;18.03;;;11.10;;
70270;SDS011;57680;54.292;18.598;2023-07-02T02:08:36;20.98;;;11.75;;
70270;SDS011;57680;54.292;18.598;2023-07-02T02:11:02;17.17;;;10.30;;
70270;SDS011;57680;54.292;18.598;2023-07-02T02:13:28;21.00;;;11.00;;
70270;SDS011;57680;54.292;18.598;2023-07-02T02:15:54;18.13;;;10.50;;
70270;SDS011;57680;54.292;18.598;2023-07-02T02:18:19;17.42;;;9.63;;
70270;SDS011;57680;54.292;18.598;2023-07-02T02:20:45;18.20;;;10.10;;
70270;SDS011;57680;54.292;18.598;2023-07-02T02:23:10;15.73;;;9.30;;
70270;SDS011;57680;54.292;18.598;2023-07-02T02:25:37;15.13;;;9.20;;
70270;SDS011;57680;54.292;18.598;2023-07-02T02:28:02;17.05;;;9.88;;
70270;SDS011;57680;54.292;18.598;2023-07-02T02:30:28;15.17;;;9.23;;
70270;SDS011;57680;54.292;18.598;2023-07-02T02:32:53;13.90;;;8.60;;
70270;SDS011;57680;54.292;18.598;2023-07-02T02:35:19;12.80;;;7.93;;
70270;SDS011;57680;54.292;18.598;2023-07-02T02:37:45;13.53;;;8.50;;
70270;SDS011;57680;54.292;18.598;2023-07-02T02:40:10;13.48;;;8.32;;
70270;SDS011;57680;54.292;18.598;2023-07-02T02:42:36;12.45;;;7.88;;
70270;SDS011;57680;54.292;18.598;2023-07-02T02:45:03;13.40;;;8.00;;
70270;SDS011;57680;54.292;18.598;2023-07-02T02:47:29;11.97;;;7.57;;
70270;SDS011;57680;54.292;18.598;2023-07-02T02:49:54;14.00;;;7.63;;
70270;SDS011;57680;54.292;18.598;2023-07-02T02:52:20;11.90;;;7.40;;
70270;SDS011;57680;54.292;18.598;2023-07-02T02:54:45;12.73;;;7.83;;
70270;SDS011;57680;54.292;18.598;2023-07-02T02:57:11;13.73;;;8.03;;
70270;SDS011;57680;54.292;18.598;2023-07-02T02:59:36;13.73;;;7.47;;
70270;SDS011;57680;54.292;18.598;2023-07-02T03:02:02;13.07;;;7.63;;
70270;SDS011;57680;54.292;18.598;2023-07-02T03:04:27;12.95;;;7.55;;
70270;SDS011;57680;54.292;18.598;2023-07-02T03:06:53;11.63;;;7.37;;
70270;SDS011;57680;54.292;18.598;2023-07-02T03:09:18;11.73;;;7.30;;
70270;SDS011;57680;54.292;18.598;2023-07-02T03:11:44;12.88;;;7.55;;
70270;SDS011;57680;54.292;18.598;2023-07-02T03:14:11;11.43;;;7.33;;
70270;SDS011;57680;54.292;18.598;2023-07-02T03:16:36;12.07;;;7.28;;
70270;SDS011;57680;54.292;18.598;2023-07-02T03:19:02;11.07;;;7.10;;
70270;SDS011;57680;54.292;18.598;2023-07-02T03:21:28;13.85;;;7.70;;
70270;SDS011;57680;54.292;18.598;2023-07-02T03:23:54;12.17;;;7.07;;
70270;SDS011;57680;54.292;18.598;2023-07-02T03:26:19;13.25;;;7.57;;
70270;SDS011;57680;54.292;18.598;2023-07-02T03:28:44;12.33;;;7.70;;
70270;SDS011;57680;54.292;18.598;2023-07-02T03:31:10;14.17;;;7.73;;
70270;SDS011;57680;54.292;18.598;2023-07-02T03:33:36;12.68;;;7.15;;
70270;SDS011;57680;54.292;18.598;2023-07-02T03:36:01;12.83;;;7.33;;
70270;SDS011;57680;54.292;18.598;2023-07-02T03:38:27;12.90;;;7.20;;
70270;SDS011;57680;54.292;18.598;2023-07-02T03:40:52;11.70;;;7.13;;
70270;SDS011;57680;54.292;18.598;2023-07-02T03:43:18;13.07;;;6.87;;
70270;SDS011;57680;54.292;18.598;2023-07-02T03:45:43;11.00;;;6.57;;
70270;SDS011;57680;54.292;18.598;2023-07-02T03:48:09;12.80;;;6.90;;
70270;SDS011;57680;54.292;18.598;2023-07-02T03:50:34;12.50;;;6.88;;
70270;SDS011;57680;54.292;18.598;2023-07-02T03:53:01;10.37;;;6.43;;
70270;SDS011;57680;54.292;18.598;2023-07-02T03:55:26;12.93;;;7.07;;
70270;SDS011;57680;54.292;18.598;2023-07-02T03:57:52;9.67;;;6.33;;
70270;SDS011;57680;54.292;18.598;2023-07-02T04:00:17;10.97;;;7.07;;
70270;SDS011;57680;54.292;18.598;2023-07-02T04:02:43;9.95;;;6.55;;
70270;SDS011;57680;54.292;18.598;2023-07-02T04:05:08;10.80;;;6.60;;
70270;SDS011;57680;54.292;18.598;2023-07-02T04:07:34;11.53;;;6.80;;
70270;SDS011;57680;54.292;18.598;2023-07-02T04:09:59;10.35;;;6.07;;
70270;SDS011;57680;54.292;18.598;2023-07-02T04:12:25;9.63;;;6.20;;
70270;SDS011;57680;54.292;18.598;2023-07-02T04:14:51;9.65;;;5.70;;
70270;SDS011;57680;54.292;18.598;2023-07-02T04:17:17;9.93;;;5.60;;
70270;SDS011;57680;54.292;18.598;2023-07-02T04:19:42;8.70;;;5.00;;
70270;SDS011;57680;54.292;18.598;2023-07-02T04:22:08;8.10;;;4.57;;
70270;SDS011;57680;54.292;18.598;2023-07-02T04:24:33;7.47;;;4.53;;
70270;SDS011;57680;54.292;18.598;2023-07-02T04:26:59;8.10;;;4.07;;
70270;SDS011;57680;54.292;18.598;2023-07-02T04:29:24;7.33;;;4.50;;
70270;SDS011;57680;54.292;18.598;2023-07-02T04:31:50;7.50;;;4.10;;
70270;SDS011;57680;54.292;18.598;2023-07-02T04:34:15;7.27;;;4.10;;
70270;SDS011;57680;54.292;18.598;2023-07-02T04:36:41;7.80;;;4.13;;
70270;SDS011;57680;54.292;18.598;2023-07-02T04:39:08;6.45;;;3.38;;
70270;SDS011;57680;54.292;18.598;2023-07-02T04:41:33;6.90;;;3.60;;
70270;SDS011;57680;54.292;18.598;2023-07-02T04:43:59;6.60;;;3.60;;
70270;SDS011;57680;54.292;18.598;2023-07-02T04:46:25;6.93;;;3.67;;
70270;SDS011;57680;54.292;18.598;2023-07-02T04:48:50;6.03;;;3.17;;
70270;SDS011;57680;54.292;18.598;2023-07-02T04:51:16;5.73;;;3.20;;
70270;SDS011;57680;54.292;18.598;2023-07-02T04:53:42;6.13;;;3.53;;
70270;SDS011;57680;54.292;18.598;2023-07-02T04:56:07;5.50;;;2.90;;
70270;SDS011;57680;54.292;18.598;2023-07-02T04:58:32;5.20;;;2.90;;
70270;SDS011;57680;54.292;18.598;2023-07-02T05:00:58;5.43;;;2.80;;
70270;SDS011;57680;54.292;18.598;2023-07-02T05:03:24;4.77;;;2.60;;
70270;SDS011;57680;54.292;18.598;2023-07-02T05:05:49;4.63;;;2.70;;
70270;SDS011;57680;54.292;18.598;2023-07-02T05:08:15;5.65;;;2.90;;
70270;SDS011;57680;54.292;18.598;2023-07-02T05:10:41;5.67;;;2.50;;
70270;SDS011;57680;54.292;18.598;2023-07-02T05:13:07;4.93;;;2.77;;
70270;SDS011;57680;54.292;18.598;2023-07-02T05:15:33;4.63;;;2.60;;
70270;SDS011;57680;54.292;18.598;2023-07-02T05:17:58;5.90;;;2.80;;
70270;SDS011;57680;54.292;18.598;2023-07-02T05:20:24;5.25;;;2.55;;
70270;SDS011;57680;54.292;18.598;2023-07-02T05:22:49;5.37;;;2.37;;
70270;SDS011;57680;54.292;18.598;2023-07-02T05:25:15;4.77;;;2.60;;
70270;SDS011;57680;54.292;18.598;2023-07-02T05:27:40;4.78;;;2.42;;
70270;SDS011;57680;54.292;18.598;2023-07-02T05:30:06;4.17;;;2.20;;
70270;SDS011;57680;54.292;18.598;2023-07-02T05:32:33;4.30;;;2.17;;
70270;SDS011;57680;54.292;18.598;2023-07-02T05:34:59;4.85;;;2.20;;
70270;SDS011;57680;54.292;18.598;2023-07-02T05:37:24;5.57;;;2.27;;
70270;SDS011;57680;54.292;18.598;2023-07-02T05:39:50;4.60;;;2.00;;
70270;SDS011;57680;54.292;18.598;2023-07-02T05:42:15;4.68;;;2.00;;
70270;SDS011;57680;54.292;18.598;2023-07-02T05:44:41;3.63;;;1.87;;
70270;SDS011;57680;54.292;18.598;2023-07-02T05:47:06;3.97;;;1.70;;
70270;SDS011;57680;54.292;18.598;2023-07-02T05:49:32;4.80;;;1.70;;
70270;SDS011;57680;54.292;18.598;2023-07-02T05:51:57;3.42;;;1.48;;
70270;SDS011;57680;54.292;18.598;2023-07-02T05:54:23;3.43;;;1.50;;
70270;SDS011;57680;54.292;18.598;2023-07-02T05:56:48;2.42;;;1.25;;
70270;SDS011;57680;54.292;18.598;2023-07-02T05:59:14;3.53;;;1.23;;
70270;SDS011;57680;54.292;18.598;2023-07-02T06:01:40;3.50;;;1.10;;
70270;SDS011;57680;54.292;18.598;2023-07-02T06:04:06;3.47;;;1.00;;
70270;SDS011;57680;54.292;18.598;2023-07-02T06:06:32;4.13;;;1.23;;
70270;SDS011;57680;54.292;18.598;2023-07-02T06:08:57;3.83;;;1.03;;
70270;SDS011;57680;54.292;18.598;2023-07-02T06:11:23;2.77;;;1.17;;
70270;SDS011;57680;54.292;18.598;2023-07-02T06:13:49;3.25;;;1.20;;
70270;SDS011;57680;54.292;18.598;2023-07-02T06:16:14;5.07;;;1.30;;
70270;SDS011;57680;54.292;18.598;2023-07-02T06:18:40;4.03;;;1.50;;
70270;SDS011;57680;54.292;18.598;2023-07-02T06:21:05;4.43;;;1.50;;
70270;SDS011;57680;54.292;18.598;2023-07-02T06:23:39;3.40;;;1.33;;
70270;SDS011;57680;54.292;18.598;2023-07-02T06:26:05;4.53;;;1.30;;
70270;SDS011;57680;54.292;18.598;2023-07-02T06:28:31;3.70;;;1.40;;
70270;SDS011;57680;54.292;18.598;2023-07-02T06:30:56;4.18;;;1.40;;
70270;SDS011;57680;54.292;18.598;2023-07-02T06:33:22;3.53;;;1.30;;
70270;SDS011;57680;54.292;18.598;2023-07-02T06:35:48;3.13;;;1.43;;
70270;SDS011;57680;54.292;18.598;2023-07-02T06:38:14;3.63;;;1.40;;
70270;SDS011;57680;54.292;18.598;2023-07-02T06:40:39;3.33;;;1.30;;
70270;SDS011;57680;54.292;18.598;2023-07-02T06:43:05;3.58;;;1.40;;
70270;SDS011;57680;54.292;18.598;2023-07-02T06:45:31;3.20;;;1.43;;
70270;SDS011;57680;54.292;18.598;2023-07-02T06:47:56;2.90;;;1.33;;
70270;SDS011;57680;54.292;18.598;2023-07-02T06:50:22;5.17;;;1.60;;
70270;SDS011;57680;54.292;18.598;2023-07-02T06:52:47;3.67;;;1.50;;
70270;SDS011;57680;54.292;18.598;2023-07-02T06:55:12;3.97;;;1.47;;
70270;SDS011;57680;54.292;18.598;2023-07-02T06:57:42;5.18;;;1.70;;
70270;SDS011;57680;54.292;18.598;2023-07-02T07:00:08;4.07;;;1.70;;
70270;SDS011;57680;54.292;18.598;2023-07-02T07:02:34;3.63;;;1.50;;
70270;SDS011;57680;54.292;18.598;2023-07-02T07:04:59;4.03;;;1.60;;
70270;SDS011;57680;54.292;18.598;2023-07-02T07:07:25;4.17;;;1.90;;
70270;SDS011;57680;54.292;18.598;2023-07-02T07:09:50;3.33;;;1.60;;
70270;SDS011;57680;54.292;18.598;2023-07-02T07:12:16;3.78;;;1.80;;
70270;SDS011;57680;54.292;18.598;2023-07-02T07:14:42;3.47;;;1.70;;
70270;SDS011;57680;54.292;18.598;2023-07-02T07:17:07;4.20;;;2.00;;
70270;SDS011;57680;54.292;18.598;2023-07-02T07:19:33;4.28;;;1.83;;
70270;SDS011;57680;54.292;18.598;2023-07-02T07:21:58;4.27;;;2.10;;
70270;SDS011;57680;54.292;18.598;2023-07-02T07:24:24;4.20;;;2.07;;
70270;SDS011;57680;54.292;18.598;2023-07-02T07:26:49;4.32;;;2.00;;
70270;SDS011;57680;54.292;18.598;2023-07-02T07:29:15;5.03;;;1.97;;
70270;SDS011;57680;54.292;18.598;2023-07-02T07:31:40;5.63;;;2.50;;
70270;SDS011;57680;54.292;18.598;2023-07-02T07:34:06;3.10;;;1.50;;
70270;SDS011;57680;54.292;18.598;2023-07-02T07:36:31;5.13;;;2.10;;
70270;SDS011;57680;54.292;18.598;2023-07-02T07:38:57;5.03;;;2.30;;
70270;SDS011;57680;54.292;18.598;2023-07-02T07:41:22;3.70;;;2.05;;
70270;SDS011;57680;54.292;18.598;2023-07-02T07:43:49;5.00;;;2.33;;
70270;SDS011;57680;54.292;18.598;2023-07-02T07:46:14;5.88;;;2.47;;
70270;SDS011;57680;54.292;18.598;2023-07-02T07:48:40;5.43;;;2.37;;
70270;SDS011;57680;54.292;18.598;2023-07-02T07:51:05;6.57;;;2.50;;
70270;SDS011;57680;54.292;18.598;2023-07-02T07:53:31;5.70;;;2.37;;
70270;SDS011;57680;54.292;18.598;2023-07-02T07:55:56;6.37;;;2.80;;
70270;SDS011;57680;54.292;18.598;2023-07-02T07:58:22;5.57;;;2.17;;
70270;SDS011;57680;54.292;18.598;2023-07-02T08:00:48;5.93;;;2.40;;
70270;SDS011;57680;54.292;18.598;2023-07-02T08:03:14;6.77;;;2.60;;
70270;SDS011;57680;54.292;18.598;2023-07-02T08:05:39;5.55;;;2.70;;
70270;SDS011;57680;54.292;18.598;2023-07-02T08:08:05;4.50;;;1.97;;
70270;SDS011;57680;54.292;18.598;2023-07-02T08:10:30;6.70;;;2.50;;
70270;SDS011;57680;54.292;18.598;2023-07-02T08:12:56;6.60;;;2.40;;
70270;SDS011;57680;54.292;18.598;2023-07-02T08:15:21;4.50;;;1.97;;
70270;SDS011;57680;54.292;18.598;2023-07-02T08:17:47;6.07;;;2.17;;
70270;SDS011;57680;54.292;18.598;2023-07-02T08:20:12;6.22;;;2.35;;
70270;SDS011;57680;54.292;18.598;2023-07-02T08:22:38;5.60;;;2.20;;
70270;SDS011;57680;54.292;18.598;2023-07-02T08:25:05;4.20;;;2.25;;
70270;SDS011;57680;54.292;18.598;2023-07-02T08:27:31;4.90;;;2.03;;
70270;SDS011;57680;54.292;18.598;2023-07-02T08:29:56;7.77;;;2.47;;
70270;SDS011;57680;54.292;18.598;2023-07-02T08:32:22;6.38;;;2.40;;
70270;SDS011;57680;54.292;18.598;2023-07-02T08:34:48;5.97;;;2.67;;
70270;SDS011;57680;54.292;18.598;2023-07-02T08:37:14;5.47;;;2.45;;
70270;SDS011;57680;54.292;18.598;2023-07-02T08:39:39;5.90;;;2.80;;
70270;SDS011;57680;54.292;18.598;2023-07-02T08:42:05;8.47;;;2.97;;
70270;SDS011;57680;54.292;18.598;2023-07-02T08:44:31;5.75;;;2.63;;
70270;SDS011;57680;54.292;18.598;2023-07-02T08:46:56;7.30;;;3.00;;
70270;SDS011;57680;54.292;18.598;2023-07-02T08:49:22;6.33;;;3.20;;
70270;SDS011;57680;54.292;18.598;2023-07-02T08:51:48;5.53;;;2.90;;
70270;SDS011;57680;54.292;18.598;2023-07-02T08:54:13;8.77;;;3.10;;
70270;SDS011;57680;54.292;18.598;2023-07-02T08:56:41;7.70;;;2.70;;
70270;SDS011;57680;54.292;18.598;2023-07-02T08:59:07;8.00;;;3.30;;
70270;SDS011;57680;54.292;18.598;2023-07-02T09:01:43;6.17;;;2.90;;
70270;SDS011;57680;54.292;18.598;2023-07-02T09:04:14;6.55;;;3.13;;
70270;SDS011;57680;54.292;18.598;2023-07-02T09:06:43;7.20;;;2.95;;
70270;SDS011;57680;54.292;18.598;2023-07-02T09:09:09;8.25;;;3.00;;
70270;SDS011;57680;54.292;18.598;2023-07-02T09:11:35;7.03;;;3.03;;
70270;SDS011;57680;54.292;18.598;2023-07-02T09:14:11;6.45;;;2.88;;
70270;SDS011;57680;54.292;18.598;2023-07-02T09:16:36;7.93;;;3.27;;
70270;SDS011;57680;54.292;18.598;2023-07-02T09:19:06;7.33;;;2.47;;
70270;SDS011;57680;54.292;18.598;2023-07-02T09:21:45;8.70;;;2.60;;
70270;SDS011;57680;54.292;18.598;2023-07-02T09:24:22;6.97;;;2.88;;
70270;SDS011;57680;54.292;18.598;2023-07-02T09:26:49;5.18;;;2.25;;
70270;SDS011;57680;54.292;18.598;2023-07-02T09:29:34;7.17;;;2.63;;
70270;SDS011;57680;54.292;18.598;2023-07-02T09:32:00;4.82;;;2.20;;
70270;SDS011;57680;54.292;18.598;2023-07-02T09:34:30;6.22;;;2.30;;
70270;SDS011;57680;54.292;18.598;2023-07-02T09:36:56;8.02;;;2.50;;
70270;SDS011;57680;54.292;18.598;2023-07-02T09:39:29;6.15;;;2.15;;
70270;SDS011;57680;54.292;18.598;2023-07-02T09:42:00;6.33;;;2.30;;
70270;SDS011;57680;54.292;18.598;2023-07-02T09:44:31;6.00;;;2.30;;
70270;SDS011;57680;54.292;18.598;2023-07-02T09:47:07;6.63;;;2.33;;
70270;SDS011;57680;54.292;18.598;2023-07-02T09:49:34;7.40;;;2.35;;
70270;SDS011;57680;54.292;18.598;2023-07-02T09:52:02;7.18;;;2.30;;
70270;SDS011;57680;54.292;18.598;2023-07-02T09:54:30;4.07;;;2.03;;
70270;SDS011;57680;54.292;18.598;2023-07-02T09:56:59;6.65;;;2.10;;
70270;SDS011;57680;54.292;18.598;2023-07-02T09:59:25;5.85;;;1.90;;
70270;SDS011;57680;54.292;18.598;2023-07-02T10:01:50;7.00;;;2.28;;
70270;SDS011;57680;54.292;18.598;2023-07-02T10:04:17;7.17;;;2.40;;
70270;SDS011;57680;54.292;18.598;2023-07-02T10:06:47;5.72;;;2.00;;
70270;SDS011;57680;54.292;18.598;2023-07-02T10:09:15;5.07;;;1.80;;
70270;SDS011;57680;54.292;18.598;2023-07-02T10:11:40;6.28;;;2.50;;
70270;SDS011;57680;54.292;18.598;2023-07-02T10:14:06;5.70;;;2.20;;
70270;SDS011;57680;54.292;18.598;2023-07-02T10:16:31;6.23;;;2.50;;
70270;SDS011;57680;54.292;18.598;2023-07-02T10:19:18;7.00;;;2.50;;
70270;SDS011;57680;54.292;18.598;2023-07-02T10:21:42;6.57;;;2.30;;
70270;SDS011;57680;54.292;18.598;2023-07-02T10:24:17;7.32;;;2.33;;
70270;SDS011;57680;54.292;18.598;2023-07-02T10:26:54;7.40;;;2.30;;
70270;SDS011;57680;54.292;18.598;2023-07-02T10:29:21;4.93;;;2.20;;
70270;SDS011;57680;54.292;18.598;2023-07-02T10:31:48;6.70;;;2.85;;
70270;SDS011;57680;54.292;18.598;2023-07-02T10:34:14;7.82;;;2.80;;
70270;SDS011;57680;54.292;18.598;2023-07-02T10:36:39;7.40;;;2.60;;
70270;SDS011;57680;54.292;18.598;2023-07-02T10:39:05;5.93;;;2.50;;
70270;SDS011;57680;54.292;18.598;2023-07-02T10:41:30;7.05;;;2.50;;
70270;SDS011;57680;54.292;18.598;2023-07-02T10:44:08;6.97;;;2.83;;
70270;SDS011;57680;54.292;18.598;2023-07-02T10:46:34;6.45;;;3.10;;
70270;SDS011;57680;54.292;18.598;2023-07-02T10:49:08;6.83;;;2.67;;
70270;SDS011;57680;54.292;18.598;2023-07-02T10:51:33;6.78;;;2.90;;
70270;SDS011;57680;54.292;18.598;2023-07-02T10:54:00;8.47;;;2.33;;
70270;SDS011;57680;54.292;18.598;2023-07-02T10:56:26;7.45;;;2.53;;
70270;SDS011;57680;54.292;18.598;2023-07-02T10:58:53;6.78;;;2.90;;
70270;SDS011;57680;54.292;18.598;2023-07-02T11:01:29;7.80;;;2.60;;
70270;SDS011;57680;54.292;18.598;2023-07-02T11:04:02;6.05;;;2.65;;
70270;SDS011;57680;54.292;18.598;2023-07-02T11:06:29;7.05;;;2.97;;
70270;SDS011;57680;54.292;18.598;2023-07-02T11:08:56;7.80;;;2.88;;
70270;SDS011;57680;54.292;18.598;2023-07-02T11:11:22;6.00;;;2.38;;
70270;SDS011;57680;54.292;18.598;2023-07-02T11:13:49;8.10;;;2.40;;
70270;SDS011;57680;54.292;18.598;2023-07-02T11:16:21;6.78;;;2.40;;
70270;SDS011;57680;54.292;18.598;2023-07-02T11:18:50;6.63;;;2.53;;
70270;SDS011;57680;54.292;18.598;2023-07-02T11:21:19;6.45;;;2.50;;
70270;SDS011;57680;54.292;18.598;2023-07-02T11:23:45;6.40;;;2.13;;
70270;SDS011;57680;54.292;18.598;2023-07-02T11:26:10;6.75;;;2.40;;
70270;SDS011;57680;54.292;18.598;2023-07-02T11:28:47;6.93;;;2.70;;
70270;SDS011;57680;54.292;18.598;2023-07-02T11:31:14;6.43;;;2.67;;
70270;SDS011;57680;54.292;18.598;2023-07-02T11:33:49;8.13;;;2.60;;
70270;SDS011;57680;54.292;18.598;2023-07-02T11:36:19;8.90;;;2.92;;
70270;SDS011;57680;54.292;18.598;2023-07-02T11:38:48;8.13;;;2.50;;
70270;SDS011;57680;54.292;18.598;2023-07-02T11:41:14;8.75;;;2.78;;
70270;SDS011;57680;54.292;18.598;2023-07-02T11:43:40;8.90;;;3.57;;
70270;SDS011;57680;54.292;18.598;2023-07-02T11:46:05;8.02;;;3.10;;
70270;SDS011;57680;54.292;18.598;2023-07-02T11:48:31;8.23;;;2.70;;
70270;SDS011;57680;54.292;18.598;2023-07-02T11:50:56;11.50;;;3.27;;
70270;SDS011;57680;54.292;18.598;2023-07-02T11:53:22;7.32;;;2.60;;
70270;SDS011;57680;54.292;18.598;2023-07-02T11:55:47;11.50;;;3.20;;
70270;SDS011;57680;54.292;18.598;2023-07-02T11:58:13;9.33;;;3.50;;
70270;SDS011;57680;54.292;18.598;2023-07-02T12:00:38;9.83;;;2.80;;
70270;SDS011;57680;54.292;18.598;2023-07-02T12:03:04;9.73;;;2.72;;
70270;SDS011;57680;54.292;18.598;2023-07-02T12:05:31;7.77;;;3.10;;
70270;SDS011;57680;54.292;18.598;2023-07-02T12:07:57;9.52;;;2.72;;
70270;SDS011;57680;54.292;18.598;2023-07-02T12:10:22;9.70;;;2.90;;
70270;SDS011;57680;54.292;18.598;2023-07-02T12:12:48;10.07;;;2.90;;
70270;SDS011;57680;54.292;18.598;2023-07-02T12:15:13;9.48;;;2.80;;
70270;SDS011;57680;54.292;18.598;2023-07-02T12:17:39;12.13;;;3.10;;
70270;SDS011;57680;54.292;18.598;2023-07-02T12:20:05;8.43;;;2.70;;
70270;SDS011;57680;54.292;18.598;2023-07-02T12:22:31;8.10;;;2.88;;
70270;SDS011;57680;54.292;18.598;2023-07-02T12:24:57;6.97;;;2.67;;
70270;SDS011;57680;54.292;18.598;2023-07-02T12:27:22;10.37;;;2.97;;
70270;SDS011;57680;54.292;18.598;2023-07-02T12:29:48;9.83;;;2.60;;
70270;SDS011;57680;54.292;18.598;2023-07-02T12:32:13;7.93;;;2.80;;
70270;SDS011;57680;54.292;18.598;2023-07-02T12:34:39;9.45;;;2.97;;
70270;SDS011;57680;54.292;18.598;2023-07-02T12:37:05;9.83;;;3.17;;
70270;SDS011;57680;54.292;18.598;2023-07-02T12:39:30;7.20;;;2.50;;
70270;SDS011;57680;54.292;18.598;2023-07-02T12:41:56;11.43;;;2.80;;
70270;SDS011;57680;54.292;18.598;2023-07-02T12:44:21;9.50;;;3.23;;
70270;SDS011;57680;54.292;18.598;2023-07-02T12:46:47;8.47;;;2.93;;
70270;SDS011;57680;54.292;18.598;2023-07-02T12:49:12;8.03;;;3.10;;
70270;SDS011;57680;54.292;18.598;2023-07-02T12:51:38;8.30;;;2.70;;
70270;SDS011;57680;54.292;18.598;2023-07-02T12:54:03;9.77;;;3.20;;
70270;SDS011;57680;54.292;18.598;2023-07-02T12:56:29;9.77;;;3.20;;
70270;SDS011;57680;54.292;18.598;2023-07-02T12:58:54;11.13;;;2.97;;
70270;SDS011;57680;54.292;18.598;2023-07-02T13:01:20;9.70;;;3.30;;
70270;SDS011;57680;54.292;18.598;2023-07-02T13:03:46;9.77;;;3.57;;
70270;SDS011;57680;54.292;18.598;2023-07-02T13:06:12;10.07;;;3.42;;
70270;SDS011;57680;54.292;18.598;2023-07-02T13:08:38;11.45;;;3.50;;
70270;SDS011;57680;54.292;18.598;2023-07-02T13:11:03;11.20;;;3.60;;
70270;SDS011;57680;54.292;18.598;2023-07-02T13:13:29;10.35;;;2.70;;
70270;SDS011;57680;54.292;18.598;2023-07-02T13:15:54;7.30;;;3.10;;
70270;SDS011;57680;54.292;18.598;2023-07-02T13:18:20;10.27;;;3.20;;
70270;SDS011;57680;54.292;18.598;2023-07-02T13:20:45;9.67;;;3.10;;
70270;SDS011;57680;54.292;18.598;2023-07-02T13:23:10;12.47;;;3.30;;
70270;SDS011;57680;54.292;18.598;2023-07-02T13:25:36;8.20;;;2.77;;
70270;SDS011;57680;54.292;18.598;2023-07-02T13:28:01;10.73;;;3.43;;
70270;SDS011;57680;54.292;18.598;2023-07-02T13:30:27;7.90;;;2.90;;
70270;SDS011;57680;54.292;18.598;2023-07-02T13:32:52;10.15;;;3.38;;
70270;SDS011;57680;54.292;18.598;2023-07-02T13:35:18;8.80;;;2.73;;
70270;SDS011;57680;54.292;18.598;2023-07-02T13:37:43;8.50;;;3.20;;
70270;SDS011;57680;54.292;18.598;2023-07-02T13:40:09;6.87;;;2.57;;
70270;SDS011;57680;54.292;18.598;2023-07-02T13:42:35;10.10;;;2.60;;
70270;SDS011;57680;54.292;18.598;2023-07-02T13:45:00;8.00;;;2.77;;
70270;SDS011;57680;54.292;18.598;2023-07-02T13:47:26;9.77;;;3.10;;
70270;SDS011;57680;54.292;18.598;2023-07-02T13:49:51;10.43;;;3.40;;
70270;SDS011;57680;54.292;18.598;2023-07-02T13:52:17;8.50;;;2.70;;
70270;SDS011;57680;54.292;18.598;2023-07-02T13:54:43;8.95;;;2.90;;
70270;SDS011;57680;54.292;18.598;2023-07-02T13:57:08;9.90;;;3.07;;
70270;SDS011;57680;54.292;18.598;2023-07-02T13:59:33;10.10;;;2.90;;
70270;SDS011;57680;54.292;18.598;2023-07-02T14:01:59;6.93;;;1.85;;
70270;SDS011;57680;54.292;18.598;2023-07-02T14:04:24;7.67;;;2.57;;
70270;SDS011;57680;54.292;18.598;2023-07-02T14:06:49;11.20;;;3.10;;
70270;SDS011;57680;54.292;18.598;2023-07-02T14:09:15;8.73;;;2.90;;
70270;SDS011;57680;54.292;18.598;2023-07-02T14:11:41;8.30;;;2.70;;
70270;SDS011;57680;54.292;18.598;2023-07-02T14:14:07;8.33;;;2.20;;
70270;SDS011;57680;54.292;18.598;2023-07-02T14:16:32;12.20;;;2.85;;
70270;SDS011;57680;54.292;18.598;2023-07-02T14:18:58;9.50;;;2.90;;
70270;SDS011;57680;54.292;18.598;2023-07-02T14:21:23;7.70;;;2.47;;
70270;SDS011;57680;54.292;18.598;2023-07-02T14:23:49;8.02;;;2.53;;
70270;SDS011;57680;54.292;18.598;2023-07-02T14:26:14;8.87;;;2.90;;